createdAt,value
2018-03-22T00:00:25.052Z,0
2018-03-22T00:01:35.188Z,0
2018-03-22T00:02:45.049Z,0
2018-03-22T00:03:54.914Z,0
2018-03-22T00:05:04.625Z,0
2018-03-22T00:06:14.618Z,0
2018-03-22T00:07:24.470Z,0
2018-03-22T00:08:34.604Z,0
2018-03-22T00:09:44.518Z,0
2018-03-22T00:10:54.693Z,0
2018-03-22T00:12:04.840Z,0
2018-03-22T00:13:14.707Z,0
2018-03-22T00:14:25.827Z,0
2018-03-22T00:15:36.657Z,0
2018-03-22T00:16:46.609Z,0
2018-03-22T00:17:56.534Z,0
2018-03-22T00:19:06.694Z,0
2018-03-22T00:20:16.566Z,0
2018-03-22T00:21:26.391Z,0
2018-03-22T00:22:35.940Z,0
2018-03-22T00:23:46.114Z,0
2018-03-22T00:24:55.874Z,0
2018-03-22T00:26:06.004Z,0
2018-03-22T00:27:16.901Z,0
2018-03-22T00:28:27.024Z,0
2018-03-22T00:29:37.200Z,0
2018-03-22T00:30:47.052Z,0
2018-03-22T00:31:57.043Z,0
2018-03-22T00:33:06.542Z,0
2018-03-22T00:34:16.686Z,0
2018-03-22T00:35:26.194Z,0
2018-03-22T00:36:36.064Z,0
2018-03-22T00:37:46.272Z,0
2018-03-22T00:38:55.889Z,0
2018-03-22T00:40:06.109Z,0
2018-03-22T00:41:16.326Z,0
2018-03-22T00:42:26.445Z,0
2018-03-22T00:43:36.454Z,0
2018-03-22T00:44:46.663Z,0
2018-03-22T00:45:56.846Z,0
2018-03-22T00:47:06.999Z,0
2018-03-22T00:48:17.211Z,0
2018-03-22T00:49:26.799Z,0
2018-03-22T00:50:36.560Z,0
2018-03-22T00:51:47.414Z,0
2018-03-22T00:52:57.297Z,0
2018-03-22T00:54:07.492Z,0
2018-03-22T00:55:17.382Z,0
2018-03-22T00:56:27.545Z,0
2018-03-22T00:57:37.654Z,0
2018-03-22T00:58:47.777Z,0
2018-03-22T00:59:57.644Z,0
2018-03-22T01:01:07.618Z,0
2018-03-22T01:02:17.130Z,0
2018-03-22T01:03:27.259Z,0
2018-03-22T01:04:36.749Z,0
2018-03-22T01:05:46.650Z,0
2018-03-22T01:06:56.559Z,0
2018-03-22T01:08:06.436Z,0
2018-03-22T01:09:16.389Z,0
2018-03-22T01:10:25.966Z,0
2018-03-22T01:11:36.151Z,0
2018-03-22T01:12:46.272Z,0
2018-03-22T01:13:56.252Z,0
2018-03-22T01:15:05.600Z,0
2018-03-22T01:16:16.723Z,0
2018-03-22T01:17:26.934Z,0
2018-03-22T01:18:36.417Z,0
2018-03-22T01:19:46.520Z,0
2018-03-22T01:20:56.445Z,0
2018-03-22T01:22:06.565Z,0
2018-03-22T01:23:16.415Z,0
2018-03-22T01:24:26.508Z,0
2018-03-22T01:25:36.491Z,0
2018-03-22T01:26:46.366Z,0
2018-03-22T01:27:56.491Z,0
2018-03-22T01:29:06.343Z,0
2018-03-22T01:30:16.513Z,0
2018-03-22T01:31:26.416Z,0
2018-03-22T01:32:36.530Z,0
2018-03-22T01:33:46.683Z,0
2018-03-22T01:34:56.290Z,0
2018-03-22T01:36:06.176Z,0
2018-03-22T01:37:16.265Z,0
2018-03-22T01:38:27.090Z,0
2018-03-22T01:39:36.870Z,0
2018-03-22T01:40:46.770Z,0
2018-03-22T01:41:56.886Z,0
2018-03-22T01:43:06.784Z,0
2018-03-22T01:44:16.887Z,0
2018-03-22T01:45:26.989Z,0
2018-03-22T01:46:37.147Z,0
2018-03-22T01:47:47.396Z,0
2018-03-22T01:48:57.239Z,0
2018-03-22T01:50:07.317Z,0
2018-03-22T01:51:17.109Z,0
2018-03-22T01:52:26.964Z,0
2018-03-22T01:53:36.862Z,0
2018-03-22T01:54:47.122Z,0
2018-03-22T01:55:57.130Z,0
2018-03-22T01:57:07.237Z,0
2018-03-22T01:58:17.414Z,0
2018-03-22T01:59:27.541Z,0
2018-03-22T02:00:37.360Z,0
2018-03-22T02:01:47.714Z,0
2018-03-22T02:02:57.831Z,0
2018-03-22T02:04:07.997Z,0
2018-03-22T02:05:18.276Z,0
2018-03-22T02:06:28.469Z,0
2018-03-22T02:07:38.633Z,0
2018-03-22T02:08:48.913Z,0
2018-03-22T02:09:59.103Z,0
2018-03-22T02:11:09.368Z,0
2018-03-22T02:12:18.906Z,0
2018-03-22T02:13:29.014Z,0
2018-03-22T02:14:39.130Z,0
2018-03-22T02:15:49.245Z,0
2018-03-22T02:16:59.468Z,0
2018-03-22T02:18:09.013Z,0
2018-03-22T02:19:19.134Z,0
2018-03-22T02:20:29.240Z,0
2018-03-22T02:21:39.146Z,0
2018-03-22T02:22:48.804Z,0
2018-03-22T02:23:58.568Z,0
2018-03-22T02:25:08.398Z,0
2018-03-22T02:26:17.921Z,0
2018-03-22T02:27:28.072Z,0
2018-03-22T02:28:37.977Z,0
2018-03-22T02:29:47.843Z,0
2018-03-22T02:30:57.713Z,0
2018-03-22T02:32:07.537Z,0
2018-03-22T02:33:17.689Z,0
2018-03-22T02:34:27.908Z,0
2018-03-22T02:35:37.697Z,0
2018-03-22T02:36:47.885Z,0
2018-03-22T02:37:57.788Z,0
2018-03-22T02:39:07.972Z,0
2018-03-22T02:40:17.578Z,0
2018-03-22T02:41:27.723Z,0
2018-03-22T02:42:37.983Z,0
2018-03-22T02:43:47.257Z,0
2018-03-22T02:44:56.506Z,0
2018-03-22T02:46:06.365Z,0
2018-03-22T02:47:16.235Z,0
2018-03-22T02:48:26.013Z,0
2018-03-22T02:49:35.569Z,0
2018-03-22T02:50:45.733Z,0
2018-03-22T02:51:55.884Z,0
2018-03-22T02:53:06.085Z,0
2018-03-22T02:54:16.228Z,0
2018-03-22T02:55:26.337Z,0
2018-03-22T02:56:36.234Z,0
2018-03-22T02:57:46.433Z,0
2018-03-22T02:58:55.823Z,0
2018-03-22T03:00:05.594Z,0
2018-03-22T03:01:15.834Z,0
2018-03-22T03:02:25.973Z,0
2018-03-22T03:03:36.108Z,0
2018-03-22T03:04:45.901Z,0
2018-03-22T03:05:56.028Z,0
2018-03-22T03:07:05.367Z,0
2018-03-22T03:08:15.601Z,0
2018-03-22T03:09:25.834Z,0
2018-03-22T03:10:36.002Z,0
2018-03-22T03:11:46.137Z,0
2018-03-22T03:12:56.324Z,0
2018-03-22T03:14:06.461Z,0
2018-03-22T03:15:16.325Z,0
2018-03-22T03:16:26.180Z,0
2018-03-22T03:17:35.674Z,0
2018-03-22T03:18:45.434Z,0
2018-03-22T03:19:55.422Z,0
2018-03-22T03:21:05.166Z,0
2018-03-22T03:22:15.351Z,0
2018-03-22T03:23:25.559Z,0
2018-03-22T03:24:35.704Z,0
2018-03-22T03:25:45.644Z,0
2018-03-22T03:26:55.508Z,0
2018-03-22T03:28:05.305Z,0
2018-03-22T03:29:15.393Z,0
2018-03-22T03:30:25.794Z,0
2018-03-22T03:31:36.111Z,0
2018-03-22T03:32:46.280Z,0
2018-03-22T03:33:56.150Z,0
2018-03-22T03:35:06.299Z,0
2018-03-22T03:36:16.162Z,0
2018-03-22T03:37:26.047Z,0
2018-03-22T03:38:36.177Z,0
2018-03-22T03:39:45.438Z,0
2018-03-22T03:40:55.562Z,0
2018-03-22T03:42:05.426Z,0
2018-03-22T03:43:15.336Z,0
2018-03-22T03:44:24.956Z,0
2018-03-22T03:45:34.796Z,0
2018-03-22T03:46:45.138Z,0
2018-03-22T03:47:54.835Z,0
2018-03-22T03:49:04.961Z,0
2018-03-22T03:50:14.869Z,0
2018-03-22T03:51:25.083Z,0
2018-03-22T03:52:35.250Z,0
2018-03-22T03:53:45.164Z,0
2018-03-22T03:54:55.034Z,0
2018-03-22T03:56:05.177Z,0
2018-03-22T03:57:14.946Z,0
2018-03-22T03:58:24.814Z,0
2018-03-22T03:59:34.704Z,0
2018-03-22T04:00:44.565Z,0
2018-03-22T04:01:54.722Z,0
2018-03-22T04:03:04.861Z,0
2018-03-22T04:04:14.987Z,0
2018-03-22T04:05:25.131Z,0
2018-03-22T04:06:35.233Z,0
2018-03-22T04:07:44.782Z,0
2018-03-22T04:08:54.892Z,0
2018-03-22T04:10:05.162Z,0
2018-03-22T04:11:15.295Z,0
2018-03-22T04:12:25.181Z,0
2018-03-22T04:13:35.326Z,0
2018-03-22T04:14:45.505Z,0
2018-03-22T04:15:55.383Z,0
2018-03-22T04:17:05.589Z,0
2018-03-22T04:18:15.333Z,0
2018-03-22T04:19:25.556Z,0
2018-03-22T04:20:35.186Z,0
2018-03-22T04:21:45.322Z,0
2018-03-22T04:22:55.257Z,0
2018-03-22T04:24:05.118Z,0
2018-03-22T04:25:15.232Z,0
2018-03-22T04:26:24.808Z,0
2018-03-22T04:27:35.082Z,0
2018-03-22T04:28:45.362Z,0
2018-03-22T04:29:54.960Z,0
2018-03-22T04:31:04.467Z,0
2018-03-22T04:32:14.314Z,0
2018-03-22T04:33:24.433Z,0
2018-03-22T04:34:34.544Z,0
2018-03-22T04:35:44.385Z,0
2018-03-22T04:36:54.526Z,0
2018-03-22T04:38:04.668Z,0
2018-03-22T04:39:14.814Z,0
2018-03-22T04:40:24.742Z,0
2018-03-22T04:41:34.591Z,0
2018-03-22T04:42:44.691Z,0
2018-03-22T04:43:54.804Z,0
2018-03-22T04:45:04.682Z,0
2018-03-22T04:46:14.737Z,0
2018-03-22T04:47:24.864Z,4
2018-03-22T04:48:34.762Z,4
2018-03-22T04:49:44.559Z,0
2018-03-22T04:50:54.701Z,0
2018-03-22T04:52:04.633Z,4
2018-03-22T04:53:14.527Z,4
2018-03-22T04:54:24.732Z,4
2018-03-22T04:55:34.926Z,4
2018-03-22T04:56:45.164Z,8
2018-03-22T04:57:55.279Z,8
2018-03-22T04:59:05.400Z,4
2018-03-22T05:00:15.569Z,8
2018-03-22T05:01:25.216Z,8
2018-03-22T05:02:35.318Z,12
2018-03-22T05:03:45.436Z,16
2018-03-22T05:04:55.556Z,20
2018-03-22T05:06:05.716Z,28
2018-03-22T05:07:15.898Z,36
2018-03-22T05:08:26.151Z,40
2018-03-22T05:09:36.327Z,52
2018-03-22T05:10:46.491Z,60
2018-03-22T05:11:56.672Z,68
2018-03-22T05:13:06.856Z,76
2018-03-22T05:14:17.105Z,84
2018-03-22T05:15:27.097Z,88
2018-03-22T05:16:37.232Z,96
2018-03-22T05:17:47.360Z,104
2018-03-22T05:18:57.513Z,112
2018-03-22T05:20:07.620Z,112
2018-03-22T05:21:17.725Z,124
2018-03-22T05:22:27.839Z,128
2018-03-22T05:23:37.991Z,132
2018-03-22T05:24:48.170Z,136
2018-03-22T05:25:58.121Z,144
2018-03-22T05:27:08.252Z,152
2018-03-22T05:28:18.142Z,164
2018-03-22T05:29:28.255Z,172
2018-03-22T05:30:38.374Z,184
2018-03-22T05:31:48.524Z,200
2018-03-22T05:32:58.796Z,208
2018-03-22T05:34:08.932Z,216
2018-03-22T05:35:18.815Z,228
2018-03-22T05:36:28.984Z,236
2018-03-22T05:37:39.130Z,220
2018-03-22T05:38:49.282Z,228
2018-03-22T05:39:59.569Z,232
2018-03-22T05:41:09.198Z,248
2018-03-22T05:42:19.374Z,268
2018-03-22T05:43:29.241Z,280
2018-03-22T05:44:39.117Z,296
2018-03-22T05:45:49.958Z,296
2018-03-22T05:46:59.844Z,304
2018-03-22T05:48:10.011Z,320
2018-03-22T05:49:20.137Z,352
2018-03-22T05:50:30.261Z,384
2018-03-22T05:51:40.388Z,408
2018-03-22T05:52:50.240Z,424
2018-03-22T05:54:00.387Z,468
2018-03-22T05:55:10.568Z,516
2018-03-22T05:56:20.731Z,548
2018-03-22T05:57:30.616Z,576
2018-03-22T05:58:41.452Z,616
2018-03-22T05:59:50.974Z,644
2018-03-22T06:01:01.109Z,668
2018-03-22T06:02:11.273Z,712
2018-03-22T06:03:21.418Z,772
2018-03-22T06:04:31.529Z,836
2018-03-22T06:05:41.052Z,948
2018-03-22T06:06:51.202Z,1064
2018-03-22T06:08:01.069Z,1156
2018-03-22T06:09:11.284Z,1232
2018-03-22T06:10:21.211Z,1308
2018-03-22T06:11:31.381Z,1388
2018-03-22T06:12:41.161Z,1452
2018-03-22T06:13:51.323Z,1536
2018-03-22T06:15:00.842Z,1564
2018-03-22T06:16:11.079Z,1492
2018-03-22T06:17:21.034Z,1400
2018-03-22T06:18:30.884Z,1320
2018-03-22T06:19:40.984Z,1284
2018-03-22T06:20:51.092Z,1196
2018-03-22T06:22:00.633Z,1176
2018-03-22T06:23:10.892Z,1232
2018-03-22T06:24:20.552Z,1272
2018-03-22T06:25:30.431Z,1332
2018-03-22T06:26:40.280Z,1404
2018-03-22T06:27:49.771Z,1460
2018-03-22T06:28:59.408Z,1544
2018-03-22T06:30:09.010Z,1636
2018-03-22T06:31:19.175Z,1728
2018-03-22T06:32:29.069Z,1732
2018-03-22T06:33:38.576Z,1672
2018-03-22T06:34:47.825Z,1620
2018-03-22T06:35:57.118Z,1592
2018-03-22T06:37:06.633Z,1624
2018-03-22T06:38:16.505Z,1716
2018-03-22T06:39:26.715Z,1916
2018-03-22T06:40:36.978Z,2328
2018-03-22T06:41:46.584Z,2928
2018-03-22T06:42:56.473Z,3520
2018-03-22T06:44:06.321Z,4016
2018-03-22T06:45:15.944Z,4060
2018-03-22T06:46:25.860Z,3616
2018-03-22T06:47:35.978Z,3172
2018-03-22T06:48:45.725Z,2864
2018-03-22T06:49:55.629Z,2696
2018-03-22T06:51:04.869Z,2600
2018-03-22T06:52:14.631Z,2572
2018-03-22T06:53:24.656Z,2696
2018-03-22T06:54:34.796Z,2756
2018-03-22T06:55:44.529Z,2688
2018-03-22T06:56:54.154Z,2512
2018-03-22T06:58:04.056Z,2424
2018-03-22T06:59:13.926Z,2472
2018-03-22T07:00:24.078Z,2440
2018-03-22T07:01:34.231Z,2416
2018-03-22T07:02:43.830Z,2480
2018-03-22T07:03:53.933Z,2452
2018-03-22T07:05:04.115Z,2508
2018-03-22T07:06:14.285Z,2708
2018-03-22T07:07:24.108Z,2848
2018-03-22T07:08:33.722Z,3048
2018-03-22T07:09:43.865Z,3188
2018-03-22T07:10:54.063Z,3128
2018-03-22T07:12:04.231Z,3328
2018-03-22T07:13:14.105Z,3012
2018-03-22T07:14:24.215Z,2828
2018-03-22T07:15:34.077Z,2664
2018-03-22T07:16:44.191Z,2564
2018-03-22T07:17:54.327Z,2336
2018-03-22T07:19:04.156Z,2064
2018-03-22T07:20:13.654Z,1820
2018-03-22T07:21:23.379Z,1768
2018-03-22T07:22:33.756Z,1732
2018-03-22T07:23:43.637Z,1684
2018-03-22T07:24:53.793Z,1588
2018-03-22T07:26:03.813Z,1548
2018-03-22T07:27:13.953Z,1504
2018-03-22T07:28:23.862Z,1668
2018-03-22T07:29:33.977Z,1772
2018-03-22T07:30:44.125Z,1864
2018-03-22T07:31:54.124Z,1940
2018-03-22T07:33:03.996Z,1868
2018-03-22T07:34:14.104Z,1784
2018-03-22T07:35:23.966Z,1620
2018-03-22T07:36:33.877Z,1612
2018-03-22T07:37:43.753Z,1780
2018-03-22T07:38:53.850Z,2224
2018-03-22T07:40:04.166Z,2684
2018-03-22T07:41:14.298Z,3684
2018-03-22T07:42:24.270Z,3248
2018-03-22T07:43:34.443Z,2460
2018-03-22T07:44:44.571Z,2280
2018-03-22T07:45:54.283Z,2656
2018-03-22T07:47:04.141Z,2984
2018-03-22T07:48:14.011Z,2768
2018-03-22T07:49:24.002Z,2340
2018-03-22T07:50:33.349Z,2320
2018-03-22T07:51:43.508Z,2596
2018-03-22T07:52:53.402Z,2232
2018-03-22T07:54:03.536Z,2056
2018-03-22T07:55:14.359Z,2136
2018-03-22T07:56:23.949Z,2288
2018-03-22T07:57:34.112Z,2468
2018-03-22T07:58:43.726Z,2552
2018-03-22T07:59:53.860Z,2612
2018-03-22T08:01:03.977Z,2504
2018-03-22T08:02:13.849Z,2676
2018-03-22T08:03:23.976Z,2736
2018-03-22T08:04:34.115Z,2716
2018-03-22T08:05:44.310Z,2728
2018-03-22T08:06:53.944Z,2400
2018-03-22T08:08:03.762Z,2272
2018-03-22T08:09:13.601Z,2444
2018-03-22T08:10:23.814Z,2552
2018-03-22T08:11:33.208Z,2632
2018-03-22T08:12:43.432Z,3124
2018-03-22T08:13:53.609Z,3048
2018-03-22T08:15:03.750Z,2936
2018-03-22T08:16:13.859Z,3180
2018-03-22T08:17:23.671Z,3484
2018-03-22T08:18:33.816Z,3456
2018-03-22T08:19:43.957Z,3452
2018-03-22T08:20:54.106Z,3424
2018-03-22T08:22:04.251Z,3428
2018-03-22T08:23:14.202Z,3212
2018-03-22T08:24:24.334Z,3388
2018-03-22T08:25:34.578Z,3188
2018-03-22T08:26:44.463Z,3244
2018-03-22T08:27:54.634Z,3188
2018-03-22T08:29:04.499Z,2892
2018-03-22T08:30:14.640Z,3208
2018-03-22T08:31:24.406Z,3204
2018-03-22T08:32:33.960Z,2996
2018-03-22T08:33:43.577Z,2856
2018-03-22T08:34:53.279Z,2296
2018-03-22T08:36:03.153Z,2344
2018-03-22T08:37:14.036Z,2584
2018-03-22T08:38:23.812Z,2508
2018-03-22T08:39:33.932Z,2500
2018-03-22T08:40:44.089Z,2876
2018-03-22T08:41:53.990Z,2876
2018-03-22T08:43:03.875Z,2800
2018-03-22T08:44:13.508Z,3076
2018-03-22T08:45:23.649Z,3096
2018-03-22T08:46:33.661Z,3172
2018-03-22T08:47:43.534Z,3636
2018-03-22T08:48:53.431Z,4056
2018-03-22T08:50:02.932Z,3856
2018-03-22T08:51:13.099Z,4196
2018-03-22T08:52:23.303Z,4596
2018-03-22T08:53:33.526Z,4380
2018-03-22T08:54:43.696Z,4392
2018-03-22T08:55:53.991Z,4300
2018-03-22T08:57:04.183Z,3976
2018-03-22T08:58:14.289Z,4160
2018-03-22T08:59:24.062Z,4008
2018-03-22T09:00:34.344Z,4096
2018-03-22T09:01:43.969Z,4344
2018-03-22T09:02:53.855Z,4472
2018-03-22T09:04:03.820Z,4840
2018-03-22T09:05:13.969Z,5028
2018-03-22T09:06:24.154Z,5104
2018-03-22T09:07:34.030Z,4928
2018-03-22T09:08:44.149Z,5068
2018-03-22T09:09:54.479Z,4808
2018-03-22T09:11:04.605Z,4016
2018-03-22T09:12:14.444Z,4192
2018-03-22T09:13:26.091Z,3608
2018-03-22T09:14:37.501Z,3928
2018-03-22T09:15:49.638Z,3620
2018-03-22T09:17:00.959Z,3756
2018-03-22T09:18:12.078Z,3980
2018-03-22T09:19:23.510Z,4452
2018-03-22T09:20:34.441Z,4852
2018-03-22T09:21:46.015Z,4068
2018-03-22T09:22:57.451Z,5136
2018-03-22T09:24:08.566Z,5080
2018-03-22T09:25:19.976Z,4848
2018-03-22T09:26:31.760Z,4280
2018-03-22T09:27:43.252Z,4548
2018-03-22T09:28:55.029Z,4588
2018-03-22T09:30:05.845Z,4120
2018-03-22T09:31:16.892Z,4040
2018-03-22T09:32:28.021Z,3128
2018-03-22T09:33:38.513Z,2984
2018-03-22T09:34:49.026Z,3868
2018-03-22T09:35:59.236Z,4080
2018-03-22T09:37:09.162Z,3940
2018-03-22T09:38:19.302Z,3704
2018-03-22T09:39:29.451Z,4068
2018-03-22T09:40:39.203Z,4056
2018-03-22T09:41:49.360Z,4296
2018-03-22T09:42:59.493Z,3780
2018-03-22T09:44:41.481Z,4664
2018-03-22T09:45:51.128Z,4220
2018-03-22T09:47:01.015Z,3608
2018-03-22T09:48:11.210Z,3700
2018-03-22T09:49:21.181Z,3676
2018-03-22T09:50:31.444Z,3536
2018-03-22T09:51:40.964Z,3508
2018-03-22T09:52:51.112Z,3196
2018-03-22T09:54:01.023Z,3452
2018-03-22T09:55:10.793Z,3396
2018-03-22T09:56:20.971Z,3568
2018-03-22T09:57:43.667Z,3444
2018-03-22T09:58:53.877Z,3796
2018-03-22T10:00:03.991Z,4248
2018-03-22T10:01:14.191Z,4516
2018-03-22T10:02:24.351Z,4828
2018-03-22T10:03:34.712Z,5140
2018-03-22T10:04:44.870Z,4536
2018-03-22T10:05:55.143Z,4804
2018-03-22T10:07:05.059Z,4572
2018-03-22T10:08:14.916Z,4288
2018-03-22T10:09:24.599Z,3912
2018-03-22T10:10:34.488Z,4564
2018-03-22T10:11:46.726Z,5008
2018-03-22T10:12:56.640Z,4912
2018-03-22T10:14:06.758Z,4272
2018-03-22T10:15:16.961Z,5136
2018-03-22T10:16:27.395Z,3764
2018-03-22T10:17:37.517Z,4068
2018-03-22T10:18:47.655Z,3716
2018-03-22T10:19:58.853Z,4020
2018-03-22T10:21:09.100Z,3568
2018-03-22T10:22:19.265Z,3180
2018-03-22T10:23:29.395Z,2988
2018-03-22T10:24:39.697Z,2940
2018-03-22T10:25:49.903Z,3216
2018-03-22T10:27:00.115Z,3088
2018-03-22T10:28:10.322Z,2848
2018-03-22T10:29:20.558Z,2684
2018-03-22T10:30:30.732Z,2640
2018-03-22T10:31:41.084Z,2448
2018-03-22T10:32:51.315Z,2940
2018-03-22T10:34:01.275Z,2972
2018-03-22T10:35:10.824Z,3148
2018-03-22T10:36:20.975Z,3532
2018-03-22T10:37:31.190Z,3928
2018-03-22T10:38:41.106Z,4308
2018-03-22T10:39:51.037Z,4264
2018-03-22T10:41:01.150Z,4084
2018-03-22T10:42:11.279Z,4176
2018-03-22T10:43:21.435Z,3796
2018-03-22T10:44:31.607Z,4268
2018-03-22T10:45:41.470Z,3980
2018-03-22T10:46:50.986Z,3900
2018-03-22T10:48:00.654Z,3180
2018-03-22T10:49:09.934Z,3320
2018-03-22T10:50:19.804Z,3360
2018-03-22T10:51:29.347Z,3896
2018-03-22T10:52:39.468Z,3320
2018-03-22T10:53:49.461Z,3624
2018-03-22T10:54:59.615Z,3696
2018-03-22T10:56:09.755Z,3984
2018-03-22T10:57:19.993Z,3996
2018-03-22T10:58:30.027Z,3808
2018-03-22T10:59:40.005Z,3692
2018-03-22T11:00:50.134Z,3656
2018-03-22T11:01:59.685Z,3560
2018-03-22T11:03:09.694Z,4016
2018-03-22T11:04:19.478Z,4172
2018-03-22T11:05:29.658Z,4372
2018-03-22T11:06:39.594Z,4284
2018-03-22T11:07:49.715Z,4788
2018-03-22T11:08:59.844Z,5072
2018-03-22T11:10:09.479Z,5140
2018-03-22T11:11:19.483Z,5352
2018-03-22T11:12:29.601Z,5236
2018-03-22T11:13:39.461Z,5404
2018-03-22T11:14:49.451Z,5736
2018-03-22T11:15:59.669Z,5612
2018-03-22T11:17:09.827Z,4448
2018-03-22T11:18:19.767Z,4308
2018-03-22T11:19:29.636Z,4300
2018-03-22T11:20:39.732Z,4384
2018-03-22T11:21:49.596Z,3624
2018-03-22T11:22:59.816Z,3804
2018-03-22T11:24:09.698Z,3608
2018-03-22T11:25:19.647Z,3356
2018-03-22T11:26:29.536Z,3340
2018-03-22T11:27:39.045Z,3808
2018-03-22T11:28:48.954Z,3820
2018-03-22T11:29:59.088Z,3948
2018-03-22T11:31:09.302Z,4500
2018-03-22T11:32:19.445Z,4360
2018-03-22T11:33:29.703Z,4760
2018-03-22T11:34:39.567Z,4772
2018-03-22T11:35:49.779Z,4932
2018-03-22T11:36:59.894Z,6168
2018-03-22T11:38:10.068Z,6044
2018-03-22T11:39:20.188Z,6116
2018-03-22T11:40:30.114Z,7160
2018-03-22T11:41:40.314Z,7528
2018-03-22T11:42:50.450Z,7828
2018-03-22T11:44:00.606Z,7184
2018-03-22T11:45:10.760Z,7196
2018-03-22T11:46:20.982Z,6504
2018-03-22T11:47:31.183Z,6420
2018-03-22T11:48:41.060Z,5444
2018-03-22T11:49:51.278Z,5652
2018-03-22T11:51:01.515Z,4884
2018-03-22T11:52:11.699Z,4236
2018-03-22T11:53:21.868Z,4432
2018-03-22T11:54:32.135Z,4908
2018-03-22T11:55:42.416Z,4132
2018-03-22T11:56:52.176Z,3604
2018-03-22T11:58:02.301Z,3484
2018-03-22T11:59:12.440Z,3224
2018-03-22T12:00:22.754Z,3608
2018-03-22T12:01:32.930Z,3476
2018-03-22T12:02:43.178Z,3744
2018-03-22T12:03:53.421Z,4000
2018-03-22T12:05:03.594Z,4332
2018-03-22T12:06:14.075Z,4492
2018-03-22T12:07:24.305Z,4868
2018-03-22T12:08:34.427Z,5464
2018-03-22T12:09:44.576Z,5364
2018-03-22T12:10:54.742Z,5676
2018-03-22T12:12:04.916Z,6000
2018-03-22T12:13:15.067Z,6636
2018-03-22T12:14:25.188Z,6972
2018-03-22T12:15:35.334Z,7676
2018-03-22T12:16:45.289Z,8272
2018-03-22T12:17:55.594Z,8240
2018-03-22T12:19:05.837Z,8176
2018-03-22T12:20:15.979Z,8340
2018-03-22T12:21:25.842Z,8904
2018-03-22T12:22:36.005Z,9312
2018-03-22T12:23:46.191Z,9416
2018-03-22T12:24:56.403Z,9500
2018-03-22T12:26:06.381Z,9628
2018-03-22T12:27:16.359Z,9608
2018-03-22T12:28:25.976Z,9476
2018-03-22T12:29:36.317Z,9368
2018-03-22T12:30:46.526Z,8836
2018-03-22T12:31:56.674Z,8580
2018-03-22T12:33:06.867Z,8208
2018-03-22T12:34:16.778Z,7900
2018-03-22T12:35:26.922Z,7708
2018-03-22T12:36:37.066Z,7808
2018-03-22T12:37:46.947Z,8448
2018-03-22T12:38:57.089Z,8928
2018-03-22T12:40:07.256Z,8872
2018-03-22T12:41:17.188Z,8636
2018-03-22T12:42:27.486Z,8664
2018-03-22T12:43:37.827Z,8564
2018-03-22T12:44:48.480Z,8624
2018-03-22T12:45:58.528Z,8512
2018-03-22T12:47:08.594Z,8484
2018-03-22T12:48:20.432Z,8084
2018-03-22T12:49:31.269Z,7712
2018-03-22T12:50:42.427Z,7608
2018-03-22T12:51:53.858Z,7072
2018-03-22T12:53:04.626Z,6452
2018-03-22T12:54:15.963Z,5544
2018-03-22T12:55:26.921Z,5248
2018-03-22T12:56:36.949Z,5644
2018-03-22T12:57:46.624Z,5904
2018-03-22T12:58:57.476Z,5288
2018-03-22T13:00:07.719Z,5408
2018-03-22T13:01:17.867Z,5952
2018-03-22T13:02:28.013Z,5640
2018-03-22T13:03:38.184Z,6224
2018-03-22T13:04:48.075Z,6164
2018-03-22T13:05:58.115Z,6300
2018-03-22T13:07:07.977Z,6040
2018-03-22T13:08:17.655Z,6652
2018-03-22T13:09:27.898Z,6392
2018-03-22T13:10:37.536Z,5644
2018-03-22T13:11:47.767Z,5036
2018-03-22T13:12:58.057Z,5276
2018-03-22T13:14:08.020Z,5768
2018-03-22T13:15:18.135Z,5496
2018-03-22T13:16:28.278Z,6168
2018-03-22T13:17:38.159Z,6064
2018-03-22T13:18:48.144Z,5772
2018-03-22T13:19:58.302Z,5956
2018-03-22T13:21:08.328Z,5940
2018-03-22T13:22:18.471Z,5936
2018-03-22T13:23:28.619Z,5156
2018-03-22T13:24:38.767Z,4768
2018-03-22T13:25:48.899Z,5000
2018-03-22T13:26:59.162Z,5352
2018-03-22T13:28:09.332Z,5620
2018-03-22T13:29:19.221Z,5292
2018-03-22T13:30:29.139Z,5464
2018-03-22T13:31:39.280Z,6372
2018-03-22T13:32:49.253Z,5664
2018-03-22T13:33:58.900Z,5696
2018-03-22T13:35:08.627Z,5204
2018-03-22T13:36:18.965Z,4448
2018-03-22T13:37:28.928Z,4464
2018-03-22T13:38:38.797Z,4452
2018-03-22T13:39:48.721Z,4672
2018-03-22T13:40:58.900Z,4616
2018-03-22T13:42:08.816Z,4256
2018-03-22T13:43:18.980Z,3996
2018-03-22T13:44:29.126Z,3820
2018-03-22T13:45:39.353Z,3760
2018-03-22T13:46:49.534Z,3764
2018-03-22T13:47:59.494Z,3484
2018-03-22T13:49:09.663Z,3660
2018-03-22T13:50:19.606Z,3740
2018-03-22T13:51:29.483Z,3972
2018-03-22T13:52:39.351Z,3780
2018-03-22T13:53:49.315Z,3616
2018-03-22T13:54:59.072Z,3408
2018-03-22T13:56:08.711Z,3308
2018-03-22T13:57:18.666Z,3452
2018-03-22T13:58:29.062Z,3452
2018-03-22T13:59:40.723Z,3632
2018-03-22T14:00:51.865Z,3520
2018-03-22T14:02:02.629Z,3864
2018-03-22T14:03:14.272Z,4312
2018-03-22T14:04:25.763Z,3652
2018-03-22T14:05:37.381Z,3840
2018-03-22T14:06:48.209Z,4700
2018-03-22T14:07:59.690Z,4212
2018-03-22T14:09:10.717Z,4056
2018-03-22T14:10:22.341Z,3752
2018-03-22T14:11:33.434Z,3932
2018-03-22T14:12:44.656Z,3972
2018-03-22T14:13:56.149Z,4260
2018-03-22T14:15:07.583Z,5164
2018-03-22T14:16:18.069Z,6372
2018-03-22T14:17:28.334Z,6392
2018-03-22T14:18:38.471Z,5672
2018-03-22T14:19:48.632Z,5220
2018-03-22T14:20:58.797Z,5204
2018-03-22T14:22:09.006Z,5344
2018-03-22T14:23:19.111Z,5848
2018-03-22T14:24:29.308Z,5268
2018-03-22T14:25:39.555Z,5740
2018-03-22T14:26:49.449Z,6296
2018-03-22T14:27:59.622Z,7868
2018-03-22T14:29:09.810Z,7860
2018-03-22T14:30:19.699Z,9060
2018-03-22T14:31:29.832Z,7380
2018-03-22T14:32:39.967Z,5512
2018-03-22T14:33:50.158Z,5540
2018-03-22T14:34:59.865Z,6064
2018-03-22T14:36:10.036Z,5660
2018-03-22T14:37:20.337Z,4676
2018-03-22T14:38:31.513Z,4644
2018-03-22T14:39:41.714Z,3804
2018-03-22T14:40:51.851Z,3772
2018-03-22T14:42:01.733Z,3876
2018-03-22T14:43:11.965Z,3852
2018-03-22T14:44:22.183Z,3532
2018-03-22T14:45:32.331Z,3692
2018-03-22T14:46:42.546Z,3336
2018-03-22T14:47:52.752Z,3368
2018-03-22T14:49:02.659Z,3140
2018-03-22T14:50:12.827Z,2984
2018-03-22T14:51:22.392Z,3008
2018-03-22T14:52:32.772Z,2920
2018-03-22T14:53:42.996Z,2612
2018-03-22T14:54:52.900Z,2508
2018-03-22T14:56:03.055Z,2592
2018-03-22T14:57:13.192Z,3312
2018-03-22T14:58:23.339Z,2868
2018-03-22T14:59:32.970Z,3176
2018-03-22T15:00:43.306Z,3028
2018-03-22T15:01:53.627Z,2728
2018-03-22T15:03:03.808Z,2824
2018-03-22T15:04:13.969Z,2432
2018-03-22T15:05:23.867Z,2444
2018-03-22T15:06:34.029Z,2952
2018-03-22T15:07:44.193Z,3588
2018-03-22T15:08:54.425Z,2788
2018-03-22T15:10:04.628Z,2416
2018-03-22T15:11:14.520Z,2220
2018-03-22T15:12:24.426Z,2528
2018-03-22T15:13:34.794Z,2340
2018-03-22T15:14:44.981Z,1768
2018-03-22T15:15:54.886Z,1704
2018-03-22T15:17:05.042Z,2160
2018-03-22T15:18:14.956Z,2080
2018-03-22T15:19:24.836Z,2084
2018-03-22T15:20:35.156Z,2136
2018-03-22T15:21:45.079Z,1840
2018-03-22T15:22:55.225Z,1732
2018-03-22T15:24:05.394Z,1940
2018-03-22T15:25:15.587Z,2128
2018-03-22T15:26:25.815Z,2372
2018-03-22T15:27:35.990Z,2984
2018-03-22T15:28:46.166Z,3244
2018-03-22T15:29:56.763Z,3504
2018-03-22T15:31:07.876Z,3680
2018-03-22T15:32:17.805Z,3572
2018-03-22T15:33:27.695Z,3900
2018-03-22T15:34:37.586Z,3640
2018-03-22T15:35:47.223Z,3388
2018-03-22T15:36:57.293Z,3708
2018-03-22T15:38:07.175Z,3812
2018-03-22T15:39:17.381Z,2988
2018-03-22T15:40:27.573Z,2672
2018-03-22T15:41:37.738Z,2876
2018-03-22T15:42:47.875Z,2728
2018-03-22T15:43:58.035Z,2728
2018-03-22T15:45:08.195Z,2396
2018-03-22T15:46:18.108Z,2476
2018-03-22T15:47:28.347Z,2280
2018-03-22T15:48:38.249Z,2120
2018-03-22T15:49:48.151Z,2172
2018-03-22T15:50:58.026Z,1968
2018-03-22T15:52:08.276Z,2028
2018-03-22T15:53:18.493Z,1832
2018-03-22T15:54:29.624Z,1784
2018-03-22T15:55:39.774Z,2084
2018-03-22T15:56:51.008Z,1984
2018-03-22T15:58:01.221Z,1624
2018-03-22T15:59:11.447Z,1640
2018-03-22T16:00:21.742Z,1452
2018-03-22T16:01:31.942Z,1592
2018-03-22T16:02:42.199Z,1976
2018-03-22T16:03:52.188Z,1772
2018-03-22T16:05:02.056Z,1500
2018-03-22T16:06:11.986Z,1744